sensor_id;sensor_type;location;lat;lon;timestamp;P1;durP1;ratioP1;P2;durP2;ratioP2
22015;SDS011;11172;51.698;-0.292;2022-07-26T00:01:28;925.17;;;836.95;;
22015;SDS011;11172;51.698;-0.292;2022-07-26T00:03:54;925.05;;;837.00;;
22015;SDS011;11172;51.698;-0.292;2022-07-26T00:06:20;917.75;;;831.13;;
22015;SDS011;11172;51.698;-0.292;2022-07-26T00:08:46;917.55;;;830.42;;
22015;SDS011;11172;51.698;-0.292;2022-07-26T00:11:12;925.25;;;837.55;;
22015;SDS011;11172;51.698;-0.292;2022-07-26T00:13:38;915.95;;;828.53;;
22015;SDS011;11172;51.698;-0.292;2022-07-26T00:16:04;911.28;;;824.65;;
22015;SDS011;11172;51.698;-0.292;2022-07-26T00:18:30;916.55;;;829.83;;
22015;SDS011;11172;51.698;-0.292;2022-07-26T00:20:56;910.65;;;823.80;;
22015;SDS011;11172;51.698;-0.292;2022-07-26T00:23:22;917.75;;;830.97;;
22015;SDS011;11172;51.698;-0.292;2022-07-26T00:25:49;919.15;;;831.72;;
22015;SDS011;11172;51.698;-0.292;2022-07-26T00:28:15;912.03;;;825.47;;
22015;SDS011;11172;51.698;-0.292;2022-07-26T00:30:41;928.70;;;840.75;;
22015;SDS011;11172;51.698;-0.292;2022-07-26T00:33:07;922.72;;;834.63;;
22015;SDS011;11172;51.698;-0.292;2022-07-26T00:35:33;916.97;;;829.95;;
22015;SDS011;11172;51.698;-0.292;2022-07-26T00:37:59;927.63;;;840.60;;
22015;SDS011;11172;51.698;-0.292;2022-07-26T00:40:25;938.83;;;849.63;;
22015;SDS011;11172;51.698;-0.292;2022-07-26T00:42:51;922.88;;;835.45;;
22015;SDS011;11172;51.698;-0.292;2022-07-26T00:45:17;914.35;;;827.00;;
22015;SDS011;11172;51.698;-0.292;2022-07-26T00:47:43;918.88;;;831.80;;
22015;SDS011;11172;51.698;-0.292;2022-07-26T00:50:12;912.78;;;826.33;;
22015;SDS011;11172;51.698;-0.292;2022-07-26T00:52:40;917.47;;;829.72;;
22015;SDS011;11172;51.698;-0.292;2022-07-26T00:55:06;919.35;;;831.70;;
22015;SDS011;11172;51.698;-0.292;2022-07-26T00:57:33;920.95;;;833.63;;
22015;SDS011;11172;51.698;-0.292;2022-07-26T01:00:00;909.25;;;822.47;;
22015;SDS011;11172;51.698;-0.292;2022-07-26T01:02:26;905.65;;;819.17;;
22015;SDS011;11172;51.698;-0.292;2022-07-26T01:04:52;907.58;;;820.95;;
22015;SDS011;11172;51.698;-0.292;2022-07-26T01:07:18;922.25;;;835.15;;
22015;SDS011;11172;51.698;-0.292;2022-07-26T01:09:44;904.58;;;818.33;;
22015;SDS011;11172;51.698;-0.292;2022-07-26T01:12:10;921.63;;;834.40;;
22015;SDS011;11172;51.698;-0.292;2022-07-26T01:14:36;911.85;;;825.35;;
22015;SDS011;11172;51.698;-0.292;2022-07-26T01:17:03;913.13;;;826.75;;
22015;SDS011;11172;51.698;-0.292;2022-07-26T01:19:29;907.63;;;821.72;;
22015;SDS011;11172;51.698;-0.292;2022-07-26T01:21:55;912.25;;;825.17;;
22015;SDS011;11172;51.698;-0.292;2022-07-26T01:24:21;905.15;;;819.20;;
22015;SDS011;11172;51.698;-0.292;2022-07-26T01:26:47;910.47;;;823.72;;
22015;SDS011;11172;51.698;-0.292;2022-07-26T01:29:13;908.47;;;822.33;;
22015;SDS011;11172;51.698;-0.292;2022-07-26T01:31:39;917.42;;;829.90;;
22015;SDS011;11172;51.698;-0.292;2022-07-26T01:34:05;911.58;;;825.75;;
22015;SDS011;11172;51.698;-0.292;2022-07-26T01:36:31;909.90;;;823.33;;
22015;SDS011;11172;51.698;-0.292;2022-07-26T01:38:57;916.15;;;830.28;;
22015;SDS011;11172;51.698;-0.292;2022-07-26T01:41:23;903.03;;;817.30;;
22015;SDS011;11172;51.698;-0.292;2022-07-26T01:43:49;899.53;;;814.08;;
22015;SDS011;11172;51.698;-0.292;2022-07-26T01:46:15;900.80;;;814.67;;
22015;SDS011;11172;51.698;-0.292;2022-07-26T01:48:41;906.08;;;820.05;;
22015;SDS011;11172;51.698;-0.292;2022-07-26T01:51:07;899.20;;;813.75;;
22015;SDS011;11172;51.698;-0.292;2022-07-26T01:53:33;911.75;;;825.85;;
22015;SDS011;11172;51.698;-0.292;2022-07-26T01:55:59;904.03;;;817.88;;
22015;SDS011;11172;51.698;-0.292;2022-07-26T01:58:25;914.30;;;828.45;;
22015;SDS011;11172;51.698;-0.292;2022-07-26T02:00:51;911.20;;;825.53;;
22015;SDS011;11172;51.698;-0.292;2022-07-26T02:03:17;908.22;;;821.85;;
22015;SDS011;11172;51.698;-0.292;2022-07-26T02:05:43;910.60;;;824.42;;
22015;SDS011;11172;51.698;-0.292;2022-07-26T02:08:10;903.33;;;817.20;;
22015;SDS011;11172;51.698;-0.292;2022-07-26T02:10:36;907.95;;;821.13;;
22015;SDS011;11172;51.698;-0.292;2022-07-26T02:13:21;905.58;;;818.67;;
22015;SDS011;11172;51.698;-0.292;2022-07-26T02:15:47;901.75;;;815.83;;
22015;SDS011;11172;51.698;-0.292;2022-07-26T02:18:13;899.05;;;813.53;;
22015;SDS011;11172;51.698;-0.292;2022-07-26T02:20:39;914.92;;;828.05;;
22015;SDS011;11172;51.698;-0.292;2022-07-26T02:23:05;910.33;;;823.08;;
22015;SDS011;11172;51.698;-0.292;2022-07-26T02:25:31;912.63;;;825.55;;
22015;SDS011;11172;51.698;-0.292;2022-07-26T02:27:57;913.80;;;827.30;;
22015;SDS011;11172;51.698;-0.292;2022-07-26T02:30:25;900.72;;;814.38;;
22015;SDS011;11172;51.698;-0.292;2022-07-26T02:32:51;908.88;;;822.40;;
22015;SDS011;11172;51.698;-0.292;2022-07-26T02:35:17;914.30;;;827.30;;
22015;SDS011;11172;51.698;-0.292;2022-07-26T02:37:43;898.17;;;813.05;;
22015;SDS011;11172;51.698;-0.292;2022-07-26T02:40:09;898.22;;;812.58;;
22015;SDS011;11172;51.698;-0.292;2022-07-26T02:42:35;904.55;;;818.85;;
22015;SDS011;11172;51.698;-0.292;2022-07-26T02:45:01;900.45;;;814.15;;
22015;SDS011;11172;51.698;-0.292;2022-07-26T02:47:27;900.42;;;814.15;;
22015;SDS011;11172;51.698;-0.292;2022-07-26T02:49:54;897.42;;;811.72;;
22015;SDS011;11172;51.698;-0.292;2022-07-26T02:52:20;893.55;;;807.95;;
22015;SDS011;11172;51.698;-0.292;2022-07-26T02:54:46;902.00;;;815.85;;
22015;SDS011;11172;51.698;-0.292;2022-07-26T02:57:12;894.65;;;808.47;;
22015;SDS011;11172;51.698;-0.292;2022-07-26T02:59:38;897.10;;;811.60;;
22015;SDS011;11172;51.698;-0.292;2022-07-26T03:02:04;903.80;;;817.78;;
22015;SDS011;11172;51.698;-0.292;2022-07-26T03:04:31;897.58;;;812.67;;
22015;SDS011;11172;51.698;-0.292;2022-07-26T03:06:57;900.20;;;813.85;;
22015;SDS011;11172;51.698;-0.292;2022-07-26T03:09:23;900.92;;;815.58;;
22015;SDS011;11172;51.698;-0.292;2022-07-26T03:11:49;887.05;;;801.95;;
22015;SDS011;11172;51.698;-0.292;2022-07-26T03:14:15;893.03;;;808.50;;
22015;SDS011;11172;51.698;-0.292;2022-07-26T03:16:41;900.28;;;814.92;;
22015;SDS011;11172;51.698;-0.292;2022-07-26T03:19:07;892.60;;;807.53;;
22015;SDS011;11172;51.698;-0.292;2022-07-26T03:21:33;893.97;;;808.83;;
22015;SDS011;11172;51.698;-0.292;2022-07-26T03:23:59;898.13;;;812.35;;
22015;SDS011;11172;51.698;-0.292;2022-07-26T03:26:25;892.42;;;806.80;;
22015;SDS011;11172;51.698;-0.292;2022-07-26T03:28:53;894.63;;;808.78;;
22015;SDS011;11172;51.698;-0.292;2022-07-26T03:31:20;891.53;;;806.47;;
22015;SDS011;11172;51.698;-0.292;2022-07-26T03:33:47;888.03;;;803.25;;
22015;SDS011;11172;51.698;-0.292;2022-07-26T03:36:13;880.92;;;796.17;;
22015;SDS011;11172;51.698;-0.292;2022-07-26T03:38:39;887.47;;;802.17;;
22015;SDS011;11172;51.698;-0.292;2022-07-26T03:41:05;896.20;;;810.53;;
22015;SDS011;11172;51.698;-0.292;2022-07-26T03:43:31;888.40;;;803.63;;
22015;SDS011;11172;51.698;-0.292;2022-07-26T03:45:57;889.78;;;805.42;;
22015;SDS011;11172;51.698;-0.292;2022-07-26T03:48:23;883.58;;;798.83;;
22015;SDS011;11172;51.698;-0.292;2022-07-26T03:50:49;894.58;;;809.45;;
22015;SDS011;11172;51.698;-0.292;2022-07-26T03:53:15;874.85;;;791.35;;
22015;SDS011;11172;51.698;-0.292;2022-07-26T03:55:41;889.15;;;803.90;;
22015;SDS011;11172;51.698;-0.292;2022-07-26T03:58:26;893.15;;;807.08;;
22015;SDS011;11172;51.698;-0.292;2022-07-26T04:00:52;888.33;;;803.95;;
22015;SDS011;11172;51.698;-0.292;2022-07-26T04:03:18;894.38;;;808.35;;
22015;SDS011;11172;51.698;-0.292;2022-07-26T04:05:46;894.22;;;808.08;;
22015;SDS011;11172;51.698;-0.292;2022-07-26T04:08:12;886.50;;;800.92;;
22015;SDS011;11172;51.698;-0.292;2022-07-26T04:10:38;877.30;;;792.05;;
22015;SDS011;11172;51.698;-0.292;2022-07-26T04:13:04;879.95;;;795.67;;
22015;SDS011;11172;51.698;-0.292;2022-07-26T04:15:30;874.45;;;789.60;;
22015;SDS011;11172;51.698;-0.292;2022-07-26T04:17:56;885.20;;;799.97;;
22015;SDS011;11172;51.698;-0.292;2022-07-26T04:20:22;876.22;;;791.53;;
22015;SDS011;11172;51.698;-0.292;2022-07-26T04:22:48;876.95;;;793.03;;
22015;SDS011;11172;51.698;-0.292;2022-07-26T04:25:14;876.25;;;792.00;;
22015;SDS011;11172;51.698;-0.292;2022-07-26T04:27:40;885.08;;;799.78;;
22015;SDS011;11172;51.698;-0.292;2022-07-26T04:30:06;868.85;;;784.70;;
22015;SDS011;11172;51.698;-0.292;2022-07-26T04:32:32;871.50;;;787.25;;
22015;SDS011;11172;51.698;-0.292;2022-07-26T04:34:58;868.25;;;784.20;;
22015;SDS011;11172;51.698;-0.292;2022-07-26T04:37:24;885.35;;;799.97;;
22015;SDS011;11172;51.698;-0.292;2022-07-26T04:39:50;879.33;;;794.92;;
22015;SDS011;11172;51.698;-0.292;2022-07-26T04:42:16;871.38;;;787.08;;
22015;SDS011;11172;51.698;-0.292;2022-07-26T04:44:42;870.15;;;785.75;;
22015;SDS011;11172;51.698;-0.292;2022-07-26T04:47:08;881.13;;;796.33;;
22015;SDS011;11172;51.698;-0.292;2022-07-26T04:49:34;876.10;;;791.50;;
22015;SDS011;11172;51.698;-0.292;2022-07-26T04:52:00;868.28;;;783.65;;
22015;SDS011;11172;51.698;-0.292;2022-07-26T04:54:26;876.42;;;791.53;;
22015;SDS011;11172;51.698;-0.292;2022-07-26T04:56:53;878.92;;;793.97;;
22015;SDS011;11172;51.698;-0.292;2022-07-26T04:59:19;862.92;;;778.30;;
22015;SDS011;11172;51.698;-0.292;2022-07-26T05:01:45;867.15;;;782.28;;
22015;SDS011;11172;51.698;-0.292;2022-07-26T05:04:11;874.47;;;788.78;;
22015;SDS011;11172;51.698;-0.292;2022-07-26T05:06:37;866.53;;;781.38;;
22015;SDS011;11172;51.698;-0.292;2022-07-26T05:09:03;879.92;;;793.83;;
22015;SDS011;11172;51.698;-0.292;2022-07-26T05:11:29;863.75;;;778.65;;
22015;SDS011;11172;51.698;-0.292;2022-07-26T05:13:55;863.03;;;778.47;;
22015;SDS011;11172;51.698;-0.292;2022-07-26T05:16:21;877.65;;;792.20;;
22015;SDS011;11172;51.698;-0.292;2022-07-26T05:18:47;856.80;;;771.78;;
22015;SDS011;11172;51.698;-0.292;2022-07-26T05:21:13;870.25;;;784.63;;
22015;SDS011;11172;51.698;-0.292;2022-07-26T05:23:39;862.45;;;777.42;;
22015;SDS011;11172;51.698;-0.292;2022-07-26T05:26:05;860.90;;;775.65;;
22015;SDS011;11172;51.698;-0.292;2022-07-26T05:28:31;862.90;;;776.72;;
22015;SDS011;11172;51.698;-0.292;2022-07-26T05:30:57;862.78;;;777.08;;
22015;SDS011;11172;51.698;-0.292;2022-07-26T05:33:23;870.72;;;785.35;;
22015;SDS011;11172;51.698;-0.292;2022-07-26T05:35:49;868.97;;;784.05;;
22015;SDS011;11172;51.698;-0.292;2022-07-26T05:38:15;875.33;;;790.65;;
22015;SDS011;11172;51.698;-0.292;2022-07-26T05:40:41;864.47;;;780.40;;
22015;SDS011;11172;51.698;-0.292;2022-07-26T05:43:07;865.70;;;781.80;;
22015;SDS011;11172;51.698;-0.292;2022-07-26T05:45:33;871.40;;;786.95;;
22015;SDS011;11172;51.698;-0.292;2022-07-26T05:47:59;871.10;;;786.63;;
22015;SDS011;11172;51.698;-0.292;2022-07-26T05:50:25;876.00;;;791.67;;
22015;SDS011;11172;51.698;-0.292;2022-07-26T05:52:51;870.95;;;786.55;;
22015;SDS011;11172;51.698;-0.292;2022-07-26T05:55:18;868.90;;;783.90;;
22015;SDS011;11172;51.698;-0.292;2022-07-26T05:57:44;871.00;;;787.33;;
22015;SDS011;11172;51.698;-0.292;2022-07-26T06:00:13;863.70;;;780.00;;
22015;SDS011;11172;51.698;-0.292;2022-07-26T06:02:39;857.63;;;775.20;;
22015;SDS011;11172;51.698;-0.292;2022-07-26T06:05:05;863.42;;;781.10;;
22015;SDS011;11172;51.698;-0.292;2022-07-26T06:07:31;869.50;;;788.22;;
22015;SDS011;11172;51.698;-0.292;2022-07-26T06:09:58;862.00;;;780.67;;
22015;SDS011;11172;51.698;-0.292;2022-07-26T06:12:24;873.35;;;791.78;;
22015;SDS011;11172;51.698;-0.292;2022-07-26T06:14:50;878.17;;;796.17;;
22015;SDS011;11172;51.698;-0.292;2022-07-26T06:17:16;874.88;;;792.83;;
22015;SDS011;11172;51.698;-0.292;2022-07-26T06:19:43;870.60;;;789.45;;
22015;SDS011;11172;51.698;-0.292;2022-07-26T06:22:09;861.47;;;781.53;;
22015;SDS011;11172;51.698;-0.292;2022-07-26T06:24:35;862.17;;;783.28;;
22015;SDS011;11172;51.698;-0.292;2022-07-26T06:27:01;869.08;;;789.90;;
22015;SDS011;11172;51.698;-0.292;2022-07-26T06:29:27;870.20;;;791.47;;
22015;SDS011;11172;51.698;-0.292;2022-07-26T06:31:53;863.10;;;785.13;;
22015;SDS011;11172;51.698;-0.292;2022-07-26T06:34:19;865.40;;;787.83;;
22015;SDS011;11172;51.698;-0.292;2022-07-26T06:36:45;860.10;;;782.88;;
22015;SDS011;11172;51.698;-0.292;2022-07-26T06:39:11;857.55;;;780.47;;
22015;SDS011;11172;51.698;-0.292;2022-07-26T06:41:37;868.80;;;790.58;;
22015;SDS011;11172;51.698;-0.292;2022-07-26T06:44:03;853.85;;;777.13;;
22015;SDS011;11172;51.698;-0.292;2022-07-26T06:46:29;857.65;;;780.88;;
22015;SDS011;11172;51.698;-0.292;2022-07-26T06:48:55;849.97;;;773.90;;
22015;SDS011;11172;51.698;-0.292;2022-07-26T06:51:21;836.33;;;761.55;;
22015;SDS011;11172;51.698;-0.292;2022-07-26T06:53:47;842.25;;;768.13;;
22015;SDS011;11172;51.698;-0.292;2022-07-26T06:56:15;838.95;;;764.03;;
22015;SDS011;11172;51.698;-0.292;2022-07-26T06:58:41;823.92;;;750.65;;
22015;SDS011;11172;51.698;-0.292;2022-07-26T07:01:08;832.83;;;759.25;;
22015;SDS011;11172;51.698;-0.292;2022-07-26T07:03:34;818.42;;;746.03;;
22015;SDS011;11172;51.698;-0.292;2022-07-26T07:06:00;825.15;;;751.95;;
22015;SDS011;11172;51.698;-0.292;2022-07-26T07:08:26;813.70;;;741.60;;
22015;SDS011;11172;51.698;-0.292;2022-07-26T07:10:53;817.20;;;744.97;;
22015;SDS011;11172;51.698;-0.292;2022-07-26T07:13:20;824.88;;;752.38;;
22015;SDS011;11172;51.698;-0.292;2022-07-26T07:15:47;821.67;;;749.90;;
22015;SDS011;11172;51.698;-0.292;2022-07-26T07:18:13;814.35;;;743.50;;
22015;SDS011;11172;51.698;-0.292;2022-07-26T07:20:39;807.60;;;737.50;;
22015;SDS011;11172;51.698;-0.292;2022-07-26T07:23:05;800.90;;;731.05;;
22015;SDS011;11172;51.698;-0.292;2022-07-26T07:25:32;802.47;;;732.83;;
22015;SDS011;11172;51.698;-0.292;2022-07-26T07:27:58;780.28;;;712.80;;
22015;SDS011;11172;51.698;-0.292;2022-07-26T07:30:25;799.08;;;730.20;;
22015;SDS011;11172;51.698;-0.292;2022-07-26T07:32:51;779.80;;;713.03;;
22015;SDS011;11172;51.698;-0.292;2022-07-26T07:35:17;782.10;;;714.70;;
22015;SDS011;11172;51.698;-0.292;2022-07-26T07:37:43;770.67;;;704.35;;
22015;SDS011;11172;51.698;-0.292;2022-07-26T07:40:09;752.35;;;687.80;;
22015;SDS011;11172;51.698;-0.292;2022-07-26T07:42:36;751.03;;;686.33;;
22015;SDS011;11172;51.698;-0.292;2022-07-26T07:45:02;741.40;;;678.55;;
22015;SDS011;11172;51.698;-0.292;2022-07-26T07:47:32;724.15;;;662.33;;
22015;SDS011;11172;51.698;-0.292;2022-07-26T07:49:58;727.40;;;665.17;;
22015;SDS011;11172;51.698;-0.292;2022-07-26T07:52:24;729.78;;;667.97;;
22015;SDS011;11172;51.698;-0.292;2022-07-26T07:54:50;719.95;;;658.88;;
22015;SDS011;11172;51.698;-0.292;2022-07-26T07:57:16;705.78;;;646.28;;
22015;SDS011;11172;51.698;-0.292;2022-07-26T07:59:42;718.47;;;657.63;;
22015;SDS011;11172;51.698;-0.292;2022-07-26T08:02:08;703.25;;;644.10;;
22015;SDS011;11172;51.698;-0.292;2022-07-26T08:04:36;706.28;;;646.70;;
22015;SDS011;11172;51.698;-0.292;2022-07-26T08:07:02;705.88;;;646.08;;
22015;SDS011;11172;51.698;-0.292;2022-07-26T08:09:29;680.13;;;623.25;;
22015;SDS011;11172;51.698;-0.292;2022-07-26T08:11:55;692.47;;;634.65;;
22015;SDS011;11172;51.698;-0.292;2022-07-26T08:14:21;678.53;;;621.80;;
22015;SDS011;11172;51.698;-0.292;2022-07-26T08:16:47;665.92;;;609.72;;
22015;SDS011;11172;51.698;-0.292;2022-07-26T08:19:13;681.13;;;623.42;;
22015;SDS011;11172;51.698;-0.292;2022-07-26T08:21:39;660.45;;;604.25;;
22015;SDS011;11172;51.698;-0.292;2022-07-26T08:24:06;669.63;;;613.25;;
22015;SDS011;11172;51.698;-0.292;2022-07-26T08:26:34;655.50;;;600.17;;
22015;SDS011;11172;51.698;-0.292;2022-07-26T08:29:00;646.42;;;591.95;;
22015;SDS011;11172;51.698;-0.292;2022-07-26T08:31:27;645.47;;;591.30;;
22015;SDS011;11172;51.698;-0.292;2022-07-26T08:33:53;617.65;;;565.53;;
22015;SDS011;11172;51.698;-0.292;2022-07-26T08:36:19;604.20;;;553.10;;
22015;SDS011;11172;51.698;-0.292;2022-07-26T08:38:45;593.88;;;543.78;;
22015;SDS011;11172;51.698;-0.292;2022-07-26T08:41:11;585.53;;;535.97;;
22015;SDS011;11172;51.698;-0.292;2022-07-26T08:43:37;571.25;;;523.13;;
22015;SDS011;11172;51.698;-0.292;2022-07-26T08:46:03;570.45;;;521.92;;
22015;SDS011;11172;51.698;-0.292;2022-07-26T08:48:29;549.42;;;502.60;;
22015;SDS011;11172;51.698;-0.292;2022-07-26T08:50:56;546.63;;;500.52;;
22015;SDS011;11172;51.698;-0.292;2022-07-26T08:53:23;544.30;;;498.00;;
22015;SDS011;11172;51.698;-0.292;2022-07-26T08:55:49;530.75;;;485.75;;
22015;SDS011;11172;51.698;-0.292;2022-07-26T08:58:15;507.33;;;464.42;;
22015;SDS011;11172;51.698;-0.292;2022-07-26T09:00:41;493.58;;;451.27;;
22015;SDS011;11172;51.698;-0.292;2022-07-26T09:03:09;472.40;;;431.55;;
22015;SDS011;11172;51.698;-0.292;2022-07-26T09:05:48;481.95;;;440.42;;
22015;SDS011;11172;51.698;-0.292;2022-07-26T09:08:29;437.80;;;399.85;;
22015;SDS011;11172;51.698;-0.292;2022-07-26T09:10:55;471.33;;;430.52;;
22015;SDS011;11172;51.698;-0.292;2022-07-26T09:13:21;439.40;;;401.23;;
22015;SDS011;11172;51.698;-0.292;2022-07-26T09:15:48;436.27;;;398.38;;
22015;SDS011;11172;51.698;-0.292;2022-07-26T09:18:24;443.60;;;404.92;;
22015;SDS011;11172;51.698;-0.292;2022-07-26T09:20:51;424.27;;;387.35;;
22015;SDS011;11172;51.698;-0.292;2022-07-26T09:23:17;412.48;;;376.15;;
22015;SDS011;11172;51.698;-0.292;2022-07-26T09:25:43;412.88;;;376.13;;
22015;SDS011;11172;51.698;-0.292;2022-07-26T09:28:27;404.77;;;368.88;;
22015;SDS011;11172;51.698;-0.292;2022-07-26T09:30:54;427.00;;;390.40;;
22015;SDS011;11172;51.698;-0.292;2022-07-26T09:33:20;395.15;;;360.17;;
22015;SDS011;11172;51.698;-0.292;2022-07-26T09:36:00;400.58;;;365.42;;
22015;SDS011;11172;51.698;-0.292;2022-07-26T09:38:37;429.25;;;391.95;;
22015;SDS011;11172;51.698;-0.292;2022-07-26T09:41:15;416.52;;;380.27;;
22015;SDS011;11172;51.698;-0.292;2022-07-26T09:43:41;407.65;;;371.88;;
22015;SDS011;11172;51.698;-0.292;2022-07-26T09:46:07;405.90;;;369.52;;
22015;SDS011;11172;51.698;-0.292;2022-07-26T09:48:34;402.10;;;366.80;;
22015;SDS011;11172;51.698;-0.292;2022-07-26T09:51:03;385.80;;;352.45;;
22015;SDS011;11172;51.698;-0.292;2022-07-26T09:53:36;368.05;;;334.95;;
22015;SDS011;11172;51.698;-0.292;2022-07-26T09:56:03;362.95;;;330.95;;
22015;SDS011;11172;51.698;-0.292;2022-07-26T09:58:29;331.30;;;301.20;;
22015;SDS011;11172;51.698;-0.292;2022-07-26T10:00:55;318.52;;;289.77;;
22015;SDS011;11172;51.698;-0.292;2022-07-26T10:03:21;303.98;;;275.90;;
22015;SDS011;11172;51.698;-0.292;2022-07-26T10:05:47;287.50;;;261.45;;
22015;SDS011;11172;51.698;-0.292;2022-07-26T10:08:14;282.50;;;256.75;;
22015;SDS011;11172;51.698;-0.292;2022-07-26T10:13:06;269.13;;;243.70;;
22015;SDS011;11172;51.698;-0.292;2022-07-26T10:15:37;274.98;;;249.65;;
22015;SDS011;11172;51.698;-0.292;2022-07-26T10:18:09;276.52;;;251.10;;
22015;SDS011;11172;51.698;-0.292;2022-07-26T10:23:02;331.98;;;301.38;;
22015;SDS011;11172;51.698;-0.292;2022-07-26T10:27:57;262.73;;;238.15;;
22015;SDS011;11172;51.698;-0.292;2022-07-26T10:30:23;251.77;;;228.07;;
22015;SDS011;11172;51.698;-0.292;2022-07-26T10:35:36;245.75;;;222.60;;
22015;SDS011;11172;51.698;-0.292;2022-07-26T10:38:12;261.35;;;237.05;;
22015;SDS011;11172;51.698;-0.292;2022-07-26T10:40:54;248.82;;;224.77;;
22015;SDS011;11172;51.698;-0.292;2022-07-26T10:43:21;208.38;;;190.15;;
22015;SDS011;11172;51.698;-0.292;2022-07-26T10:45:47;223.02;;;202.02;;
22015;SDS011;11172;51.698;-0.292;2022-07-26T10:50:43;216.18;;;195.75;;
22015;SDS011;11172;51.698;-0.292;2022-07-26T10:53:15;219.93;;;199.50;;
22015;SDS011;11172;51.698;-0.292;2022-07-26T10:58:11;221.45;;;200.07;;
22015;SDS011;11172;51.698;-0.292;2022-07-26T11:00:37;210.38;;;190.77;;
22015;SDS011;11172;51.698;-0.292;2022-07-26T11:03:03;217.35;;;197.07;;
22015;SDS011;11172;51.698;-0.292;2022-07-26T11:05:29;225.43;;;203.95;;
22015;SDS011;11172;51.698;-0.292;2022-07-26T11:10:29;195.77;;;177.98;;
22015;SDS011;11172;51.698;-0.292;2022-07-26T11:15:25;219.48;;;199.25;;
22015;SDS011;11172;51.698;-0.292;2022-07-26T11:17:51;220.52;;;200.00;;
22015;SDS011;11172;51.698;-0.292;2022-07-26T11:20:29;228.13;;;206.80;;
22015;SDS011;11172;51.698;-0.292;2022-07-26T11:22:55;211.40;;;191.35;;
22015;SDS011;11172;51.698;-0.292;2022-07-26T11:25:22;215.23;;;194.32;;
22015;SDS011;11172;51.698;-0.292;2022-07-26T11:28:04;217.60;;;197.43;;
22015;SDS011;11172;51.698;-0.292;2022-07-26T11:30:30;191.63;;;174.27;;
22015;SDS011;11172;51.698;-0.292;2022-07-26T11:32:56;225.95;;;204.50;;
22015;SDS011;11172;51.698;-0.292;2022-07-26T11:35:23;223.68;;;202.40;;
22015;SDS011;11172;51.698;-0.292;2022-07-26T11:37:56;227.57;;;206.43;;
22015;SDS011;11172;51.698;-0.292;2022-07-26T11:40:44;227.95;;;207.05;;
22015;SDS011;11172;51.698;-0.292;2022-07-26T11:43:11;240.85;;;218.82;;
22015;SDS011;11172;51.698;-0.292;2022-07-26T11:45:38;226.82;;;205.85;;
22015;SDS011;11172;51.698;-0.292;2022-07-26T11:48:04;224.93;;;203.98;;
22015;SDS011;11172;51.698;-0.292;2022-07-26T11:50:31;223.23;;;202.52;;
22015;SDS011;11172;51.698;-0.292;2022-07-26T11:52:57;220.55;;;199.60;;
22015;SDS011;11172;51.698;-0.292;2022-07-26T11:55:29;227.25;;;206.10;;
22015;SDS011;11172;51.698;-0.292;2022-07-26T11:57:56;195.95;;;178.10;;
22015;SDS011;11172;51.698;-0.292;2022-07-26T12:00:28;217.23;;;197.45;;
22015;SDS011;11172;51.698;-0.292;2022-07-26T12:02:55;221.77;;;201.02;;
22015;SDS011;11172;51.698;-0.292;2022-07-26T12:05:21;214.95;;;194.90;;
22015;SDS011;11172;51.698;-0.292;2022-07-26T12:08:05;228.70;;;207.48;;
22015;SDS011;11172;51.698;-0.292;2022-07-26T12:10:32;230.73;;;208.82;;
22015;SDS011;11172;51.698;-0.292;2022-07-26T12:13:05;225.05;;;204.15;;
22015;SDS011;11172;51.698;-0.292;2022-07-26T12:15:42;230.75;;;209.48;;
22015;SDS011;11172;51.698;-0.292;2022-07-26T12:18:08;245.43;;;222.80;;
22015;SDS011;11172;51.698;-0.292;2022-07-26T12:20:34;240.60;;;218.60;;
22015;SDS011;11172;51.698;-0.292;2022-07-26T12:23:00;235.90;;;214.27;;
22015;SDS011;11172;51.698;-0.292;2022-07-26T12:25:30;244.90;;;221.70;;
22015;SDS011;11172;51.698;-0.292;2022-07-26T12:27:56;246.98;;;224.10;;
22015;SDS011;11172;51.698;-0.292;2022-07-26T12:30:22;246.45;;;223.57;;
22015;SDS011;11172;51.698;-0.292;2022-07-26T12:32:49;258.17;;;234.25;;
22015;SDS011;11172;51.698;-0.292;2022-07-26T12:35:17;256.15;;;231.88;;
22015;SDS011;11172;51.698;-0.292;2022-07-26T12:37:53;274.15;;;249.48;;
22015;SDS011;11172;51.698;-0.292;2022-07-26T12:40:20;273.00;;;247.43;;
22015;SDS011;11172;51.698;-0.292;2022-07-26T12:45:16;284.17;;;257.85;;
22015;SDS011;11172;51.698;-0.292;2022-07-26T12:47:43;283.75;;;257.40;;
22015;SDS011;11172;51.698;-0.292;2022-07-26T12:50:10;294.10;;;266.95;;
22015;SDS011;11172;51.698;-0.292;2022-07-26T12:52:37;289.98;;;263.65;;
22015;SDS011;11172;51.698;-0.292;2022-07-26T12:55:04;293.23;;;266.50;;
22015;SDS011;11172;51.698;-0.292;2022-07-26T12:57:30;296.15;;;269.27;;
22015;SDS011;11172;51.698;-0.292;2022-07-26T12:59:57;293.17;;;266.63;;
22015;SDS011;11172;51.698;-0.292;2022-07-26T13:02:23;301.02;;;273.92;;
22015;SDS011;11172;51.698;-0.292;2022-07-26T13:04:49;295.52;;;268.45;;
22015;SDS011;11172;51.698;-0.292;2022-07-26T13:07:16;296.35;;;269.20;;
22015;SDS011;11172;51.698;-0.292;2022-07-26T13:09:43;290.70;;;264.38;;
22015;SDS011;11172;51.698;-0.292;2022-07-26T13:12:09;297.67;;;271.00;;
22015;SDS011;11172;51.698;-0.292;2022-07-26T13:14:36;297.63;;;270.50;;
22015;SDS011;11172;51.698;-0.292;2022-07-26T13:17:03;293.20;;;266.85;;
22015;SDS011;11172;51.698;-0.292;2022-07-26T13:19:29;302.27;;;275.42;;
22015;SDS011;11172;51.698;-0.292;2022-07-26T13:21:56;290.83;;;264.30;;
22015;SDS011;11172;51.698;-0.292;2022-07-26T13:24:23;292.20;;;266.00;;
22015;SDS011;11172;51.698;-0.292;2022-07-26T13:26:49;297.17;;;270.38;;
22015;SDS011;11172;51.698;-0.292;2022-07-26T13:29:16;296.25;;;269.15;;
22015;SDS011;11172;51.698;-0.292;2022-07-26T13:31:42;292.70;;;265.80;;
22015;SDS011;11172;51.698;-0.292;2022-07-26T13:34:08;285.60;;;259.40;;
22015;SDS011;11172;51.698;-0.292;2022-07-26T13:36:34;292.23;;;265.75;;
22015;SDS011;11172;51.698;-0.292;2022-07-26T13:39:00;300.70;;;273.80;;
22015;SDS011;11172;51.698;-0.292;2022-07-26T13:41:26;307.38;;;279.52;;
22015;SDS011;11172;51.698;-0.292;2022-07-26T13:43:53;309.23;;;281.52;;
22015;SDS011;11172;51.698;-0.292;2022-07-26T13:46:19;296.80;;;270.20;;
22015;SDS011;11172;51.698;-0.292;2022-07-26T13:48:46;318.38;;;289.58;;
22015;SDS011;11172;51.698;-0.292;2022-07-26T13:51:12;316.75;;;288.17;;
22015;SDS011;11172;51.698;-0.292;2022-07-26T13:53:38;307.13;;;279.52;;
22015;SDS011;11172;51.698;-0.292;2022-07-26T13:56:04;303.63;;;276.13;;
22015;SDS011;11172;51.698;-0.292;2022-07-26T13:58:30;328.60;;;298.70;;
22015;SDS011;11172;51.698;-0.292;2022-07-26T14:00:57;324.35;;;295.17;;
22015;SDS011;11172;51.698;-0.292;2022-07-26T14:03:23;328.15;;;298.63;;
22015;SDS011;11172;51.698;-0.292;2022-07-26T14:05:49;329.42;;;299.90;;